sensor_id;sensor_type;location;lat;lon;timestamp;temperature;humidity
77218;DHT22;66214;51.302;17.068;2023-03-23T00:00:01;10.45;66.56
77218;DHT22;66214;51.302;17.068;2023-03-23T00:03:12;10.36;66.57
77218;DHT22;66214;51.302;17.068;2023-03-23T00:05:39;10.29;66.64
77218;DHT22;66214;51.302;17.068;2023-03-23T00:08:18;10.23;66.83
77218;DHT22;66214;51.302;17.068;2023-03-23T00:10:50;10.19;66.99
77218;DHT22;66214;51.302;17.068;2023-03-23T00:13:24;10.16;67.05
77218;DHT22;66214;51.302;17.068;2023-03-23T00:15:53;10.10;67.14
77218;DHT22;66214;51.302;17.068;2023-03-23T00:18:20;10.09;67.31
77218;DHT22;66214;51.302;17.068;2023-03-23T00:20:49;10.07;67.70
77218;DHT22;66214;51.302;17.068;2023-03-23T00:23:20;10.06;68.06
77218;DHT22;66214;51.302;17.068;2023-03-23T00:25:53;10.07;68.26
77218;DHT22;66214;51.302;17.068;2023-03-23T00:28:26;10.11;68.19
77218;DHT22;66214;51.302;17.068;2023-03-23T00:31:02;10.15;68.03
77218;DHT22;66214;51.302;17.068;2023-03-23T00:33:34;10.19;67.76
77218;DHT22;66214;51.302;17.068;2023-03-23T00:36:09;10.26;67.69
77218;DHT22;66214;51.302;17.068;2023-03-23T00:38:40;10.34;67.73
77218;DHT22;66214;51.302;17.068;2023-03-23T00:41:11;10.39;67.65
77218;DHT22;66214;51.302;17.068;2023-03-23T00:43:39;10.44;68.21
77218;DHT22;66214;51.302;17.068;2023-03-23T00:46:07;10.46;68.14
77218;DHT22;66214;51.302;17.068;2023-03-23T00:48:36;10.44;68.11
77218;DHT22;66214;51.302;17.068;2023-03-23T00:51:12;10.41;68.03
77218;DHT22;66214;51.302;17.068;2023-03-23T00:53:40;10.36;67.96
77218;DHT22;66214;51.302;17.068;2023-03-23T00:56:08;10.36;68.20
77218;DHT22;66214;51.302;17.068;2023-03-23T00:58:37;10.35;68.57
77218;DHT22;66214;51.302;17.068;2023-03-23T01:01:05;10.35;68.86
77218;DHT22;66214;51.302;17.068;2023-03-23T01:03:33;10.34;69.27
77218;DHT22;66214;51.302;17.068;2023-03-23T01:06:06;10.33;69.25
77218;DHT22;66214;51.302;17.068;2023-03-23T01:08:40;10.33;69.24
77218;DHT22;66214;51.302;17.068;2023-03-23T01:11:13;10.32;69.14
77218;DHT22;66214;51.302;17.068;2023-03-23T01:13:43;10.32;69.09
77218;DHT22;66214;51.302;17.068;2023-03-23T01:16:12;10.32;68.98
77218;DHT22;66214;51.302;17.068;2023-03-23T01:18:40;10.30;68.95
77218;DHT22;66214;51.302;17.068;2023-03-23T01:21:09;10.30;68.83
77218;DHT22;66214;51.302;17.068;2023-03-23T01:23:40;10.30;69.11
77218;DHT22;66214;51.302;17.068;2023-03-23T01:26:10;10.31;69.44
77218;DHT22;66214;51.302;17.068;2023-03-23T01:28:44;10.34;69.32
77218;DHT22;66214;51.302;17.068;2023-03-23T01:31:13;10.36;69.41
77218;DHT22;66214;51.302;17.068;2023-03-23T01:33:45;10.37;69.68
77218;DHT22;66214;51.302;17.068;2023-03-23T01:36:17;10.38;69.92
77218;DHT22;66214;51.302;17.068;2023-03-23T01:38:49;10.41;69.86
77218;DHT22;66214;51.302;17.068;2023-03-23T01:41:18;10.41;69.74
77218;DHT22;66214;51.302;17.068;2023-03-23T01:46:29;10.37;69.67
77218;DHT22;66214;51.302;17.068;2023-03-23T01:49:20;10.33;69.67
77218;DHT22;66214;51.302;17.068;2023-03-23T01:51:58;10.28;69.88
77218;DHT22;66214;51.302;17.068;2023-03-23T01:54:30;10.24;69.83
77218;DHT22;66214;51.302;17.068;2023-03-23T01:57:06;10.22;69.92
77218;DHT22;66214;51.302;17.068;2023-03-23T01:59:37;10.18;70.27
77218;DHT22;66214;51.302;17.068;2023-03-23T02:02:05;10.16;70.58
77218;DHT22;66214;51.302;17.068;2023-03-23T02:04:33;10.15;70.72
77218;DHT22;66214;51.302;17.068;2023-03-23T02:07:02;10.14;70.82
77218;DHT22;66214;51.302;17.068;2023-03-23T02:09:31;10.14;70.96
77218;DHT22;66214;51.302;17.068;2023-03-23T02:11:58;10.15;70.98
77218;DHT22;66214;51.302;17.068;2023-03-23T02:14:28;10.14;70.73
77218;DHT22;66214;51.302;17.068;2023-03-23T02:19:53;10.16;70.46
77218;DHT22;66214;51.302;17.068;2023-03-23T02:28:45;10.21;70.00
77218;DHT22;66214;51.302;17.068;2023-03-23T02:37:03;10.30;69.58
77218;DHT22;66214;51.302;17.068;2023-03-23T02:39:37;10.33;69.49
77218;DHT22;66214;51.302;17.068;2023-03-23T02:42:22;10.36;69.36
77218;DHT22;66214;51.302;17.068;2023-03-23T02:44:56;10.43;69.59
77218;DHT22;66214;51.302;17.068;2023-03-23T02:47:30;10.49;69.71
77218;DHT22;66214;51.302;17.068;2023-03-23T02:50:00;10.57;69.62
77218;DHT22;66214;51.302;17.068;2023-03-23T02:52:31;10.63;69.36
77218;DHT22;66214;51.302;17.068;2023-03-23T02:55:02;10.66;69.19
77218;DHT22;66214;51.302;17.068;2023-03-23T02:57:31;10.68;69.04
77218;DHT22;66214;51.302;17.068;2023-03-23T02:59:59;10.70;68.90
77218;DHT22;66214;51.302;17.068;2023-03-23T03:02:28;10.73;68.78
77218;DHT22;66214;51.302;17.068;2023-03-23T03:13:31;10.82;68.31
77218;DHT22;66214;51.302;17.068;2023-03-23T03:16:24;10.85;68.20
77218;DHT22;66214;51.302;17.068;2023-03-23T03:19:44;10.86;68.15
77218;DHT22;66214;51.302;17.068;2023-03-23T03:22:15;10.86;68.10
77218;DHT22;66214;51.302;17.068;2023-03-23T03:24:44;10.86;68.05
77218;DHT22;66214;51.302;17.068;2023-03-23T03:27:13;10.87;68.02
77218;DHT22;66214;51.302;17.068;2023-03-23T03:29:46;10.90;68.24
77218;DHT22;66214;51.302;17.068;2023-03-23T03:32:22;10.95;68.26
77218;DHT22;66214;51.302;17.068;2023-03-23T03:34:59;10.97;68.25
77218;DHT22;66214;51.302;17.068;2023-03-23T03:37:35;10.98;68.08
77218;DHT22;66214;51.302;17.068;2023-03-23T03:40:08;10.97;68.01
77218;DHT22;66214;51.302;17.068;2023-03-23T03:42:40;10.95;68.04
77218;DHT22;66214;51.302;17.068;2023-03-23T03:45:11;10.92;68.08
77218;DHT22;66214;51.302;17.068;2023-03-23T03:47:42;10.89;68.13
77218;DHT22;66214;51.302;17.068;2023-03-23T03:50:10;10.86;68.14
77218;DHT22;66214;51.302;17.068;2023-03-23T03:52:39;10.84;68.14
77218;DHT22;66214;51.302;17.068;2023-03-23T03:55:08;10.81;68.16
77218;DHT22;66214;51.302;17.068;2023-03-23T03:57:37;10.80;68.18
77218;DHT22;66214;51.302;17.068;2023-03-23T04:00:06;10.79;68.17
77218;DHT22;66214;51.302;17.068;2023-03-23T04:02:43;10.77;68.15
77218;DHT22;66214;51.302;17.068;2023-03-23T04:05:21;10.79;68.36
77218;DHT22;66214;51.302;17.068;2023-03-23T04:07:50;10.82;68.49
77218;DHT22;66214;51.302;17.068;2023-03-23T04:10:19;10.83;68.58
77218;DHT22;66214;51.302;17.068;2023-03-23T04:12:51;10.84;68.42
77218;DHT22;66214;51.302;17.068;2023-03-23T04:15:19;10.83;68.33
77218;DHT22;66214;51.302;17.068;2023-03-23T04:17:46;10.84;68.18
77218;DHT22;66214;51.302;17.068;2023-03-23T04:20:14;10.81;68.16
77218;DHT22;66214;51.302;17.068;2023-03-23T04:22:45;10.82;68.13
77218;DHT22;66214;51.302;17.068;2023-03-23T04:25:17;10.82;68.06
77218;DHT22;66214;51.302;17.068;2023-03-23T04:27:51;10.82;68.05
77218;DHT22;66214;51.302;17.068;2023-03-23T04:30:20;10.83;68.03
77218;DHT22;66214;51.302;17.068;2023-03-23T04:32:51;10.83;67.98
77218;DHT22;66214;51.302;17.068;2023-03-23T04:35:23;10.84;67.97
77218;DHT22;66214;51.302;17.068;2023-03-23T04:37:53;10.86;67.90
77218;DHT22;66214;51.302;17.068;2023-03-23T04:40:21;10.87;67.89
77218;DHT22;66214;51.302;17.068;2023-03-23T04:42:50;10.88;67.88
77218;DHT22;66214;51.302;17.068;2023-03-23T04:45:19;10.93;68.05
77218;DHT22;66214;51.302;17.068;2023-03-23T04:47:49;10.97;68.30
77218;DHT22;66214;51.302;17.068;2023-03-23T04:50:26;11.01;68.30
77218;DHT22;66214;51.302;17.068;2023-03-23T04:52:58;11.04;68.12
77218;DHT22;66214;51.302;17.068;2023-03-23T04:55:31;11.07;67.88
77218;DHT22;66214;51.302;17.068;2023-03-23T04:58:05;11.09;67.63
77218;DHT22;66214;51.302;17.068;2023-03-23T05:00:34;11.08;67.47
77218;DHT22;66214;51.302;17.068;2023-03-23T05:03:03;11.07;67.31
77218;DHT22;66214;51.302;17.068;2023-03-23T05:05:34;11.06;67.27
77218;DHT22;66214;51.302;17.068;2023-03-23T05:08:03;11.05;67.21
77218;DHT22;66214;51.302;17.068;2023-03-23T05:14:25;11.09;67.38
77218;DHT22;66214;51.302;17.068;2023-03-23T05:16:53;11.11;67.26
77218;DHT22;66214;51.302;17.068;2023-03-23T05:19:20;11.10;67.10
77218;DHT22;66214;51.302;17.068;2023-03-23T05:21:46;11.14;66.99
77218;DHT22;66214;51.302;17.068;2023-03-23T05:24:12;11.16;66.89
77218;DHT22;66214;51.302;17.068;2023-03-23T05:26:39;11.19;66.80
77218;DHT22;66214;51.302;17.068;2023-03-23T05:29:06;11.24;66.83
77218;DHT22;66214;51.302;17.068;2023-03-23T05:31:32;11.29;66.91
77218;DHT22;66214;51.302;17.068;2023-03-23T05:33:59;11.33;66.87
77218;DHT22;66214;51.302;17.068;2023-03-23T05:36:25;11.35;66.76
77218;DHT22;66214;51.302;17.068;2023-03-23T05:38:52;11.38;66.67
77218;DHT22;66214;51.302;17.068;2023-03-23T05:41:18;11.41;66.57
77218;DHT22;66214;51.302;17.068;2023-03-23T05:43:45;11.45;66.48
77218;DHT22;66214;51.302;17.068;2023-03-23T05:46:11;11.48;66.34
77218;DHT22;66214;51.302;17.068;2023-03-23T05:48:37;11.53;66.26
77218;DHT22;66214;51.302;17.068;2023-03-23T05:51:04;11.57;66.10
77218;DHT22;66214;51.302;17.068;2023-03-23T05:53:30;11.62;66.09
77218;DHT22;66214;51.302;17.068;2023-03-23T05:56:00;11.64;65.98
77218;DHT22;66214;51.302;17.068;2023-03-23T05:58:29;11.66;65.89
77218;DHT22;66214;51.302;17.068;2023-03-23T06:00:56;11.69;65.86
77218;DHT22;66214;51.302;17.068;2023-03-23T06:03:23;11.71;65.86
77218;DHT22;66214;51.302;17.068;2023-03-23T06:05:49;11.77;65.82
77218;DHT22;66214;51.302;17.068;2023-03-23T06:08:16;11.81;65.80
77218;DHT22;66214;51.302;17.068;2023-03-23T06:10:43;11.86;65.69
77218;DHT22;66214;51.302;17.068;2023-03-23T06:13:09;11.93;65.65
77218;DHT22;66214;51.302;17.068;2023-03-23T06:15:36;12.03;65.54
77218;DHT22;66214;51.302;17.068;2023-03-23T06:18:03;12.13;65.41
77218;DHT22;66214;51.302;17.068;2023-03-23T06:20:31;12.23;65.27
77218;DHT22;66214;51.302;17.068;2023-03-23T06:22:58;12.34;65.17
77218;DHT22;66214;51.302;17.068;2023-03-23T06:25:25;12.43;65.04
77218;DHT22;66214;51.302;17.068;2023-03-23T06:27:51;12.49;64.70
77218;DHT22;66214;51.302;17.068;2023-03-23T06:30:18;12.53;64.51
77218;DHT22;66214;51.302;17.068;2023-03-23T06:32:45;12.61;64.42
77218;DHT22;66214;51.302;17.068;2023-03-23T06:35:13;12.69;64.34
77218;DHT22;66214;51.302;17.068;2023-03-23T06:37:41;12.76;64.36
77218;DHT22;66214;51.302;17.068;2023-03-23T06:40:08;12.80;64.18
77218;DHT22;66214;51.302;17.068;2023-03-23T06:42:36;12.85;63.82
77218;DHT22;66214;51.302;17.068;2023-03-23T06:45:03;12.91;63.53
77218;DHT22;66214;51.302;17.068;2023-03-23T06:47:31;13.00;63.25
77218;DHT22;66214;51.302;17.068;2023-03-23T06:49:58;13.13;63.18
77218;DHT22;66214;51.302;17.068;2023-03-23T06:52:25;13.23;63.00
77218;DHT22;66214;51.302;17.068;2023-03-23T06:54:52;13.32;62.97
77218;DHT22;66214;51.302;17.068;2023-03-23T06:57:19;13.45;63.02
77218;DHT22;66214;51.302;17.068;2023-03-23T06:59:46;13.60;63.12
77218;DHT22;66214;51.302;17.068;2023-03-23T07:02:14;13.78;62.98
77218;DHT22;66214;51.302;17.068;2023-03-23T07:04:41;13.92;62.47
77218;DHT22;66214;51.302;17.068;2023-03-23T07:07:08;14.02;62.38
77218;DHT22;66214;51.302;17.068;2023-03-23T07:09:36;14.11;62.21
77218;DHT22;66214;51.302;17.068;2023-03-23T07:12:03;14.19;62.25
77218;DHT22;66214;51.302;17.068;2023-03-23T07:18:48;14.27;61.67
77218;DHT22;66214;51.302;17.068;2023-03-23T07:21:15;14.28;61.77
77218;DHT22;66214;51.302;17.068;2023-03-23T07:23:42;14.31;61.74
77218;DHT22;66214;51.302;17.068;2023-03-23T07:26:08;14.32;61.48
77218;DHT22;66214;51.302;17.068;2023-03-23T07:28:35;14.30;61.29
77218;DHT22;66214;51.302;17.068;2023-03-23T07:31:02;14.30;61.25
77218;DHT22;66214;51.302;17.068;2023-03-23T07:33:29;14.31;61.46
77218;DHT22;66214;51.302;17.068;2023-03-23T07:35:58;14.32;61.17
77218;DHT22;66214;51.302;17.068;2023-03-23T07:38:26;14.34;61.16
77218;DHT22;66214;51.302;17.068;2023-03-23T07:40:53;14.41;61.23
77218;DHT22;66214;51.302;17.068;2023-03-23T07:43:20;14.54;61.10
77218;DHT22;66214;51.302;17.068;2023-03-23T07:45:46;14.66;60.65
77218;DHT22;66214;51.302;17.068;2023-03-23T07:48:13;14.73;60.60
77218;DHT22;66214;51.302;17.068;2023-03-23T07:50:40;14.80;60.67
77218;DHT22;66214;51.302;17.068;2023-03-23T07:53:06;14.90;60.61
77218;DHT22;66214;51.302;17.068;2023-03-23T07:55:33;15.01;60.22
77218;DHT22;66214;51.302;17.068;2023-03-23T07:58:00;15.16;59.94
77218;DHT22;66214;51.302;17.068;2023-03-23T08:00:26;15.29;59.13
77218;DHT22;66214;51.302;17.068;2023-03-23T08:02:54;15.43;59.22
77218;DHT22;66214;51.302;17.068;2023-03-23T08:05:22;15.55;58.26
77218;DHT22;66214;51.302;17.068;2023-03-23T08:07:52;15.61;57.91
77218;DHT22;66214;51.302;17.068;2023-03-23T08:10:20;15.68;57.45
77218;DHT22;66214;51.302;17.068;2023-03-23T08:12:53;15.73;57.43
77218;DHT22;66214;51.302;17.068;2023-03-23T08:15:21;15.77;57.46
77218;DHT22;66214;51.302;17.068;2023-03-23T08:17:49;15.79;57.09
77218;DHT22;66214;51.302;17.068;2023-03-23T08:20:17;15.80;57.02
77218;DHT22;66214;51.302;17.068;2023-03-23T08:22:51;15.87;56.26
77218;DHT22;66214;51.302;17.068;2023-03-23T08:25:21;15.98;55.99
77218;DHT22;66214;51.302;17.068;2023-03-23T08:27:50;16.13;56.11
77218;DHT22;66214;51.302;17.068;2023-03-23T08:30:17;16.23;56.27
77218;DHT22;66214;51.302;17.068;2023-03-23T08:32:46;16.36;55.60
77218;DHT22;66214;51.302;17.068;2023-03-23T08:35:13;16.37;54.88
77218;DHT22;66214;51.302;17.068;2023-03-23T08:37:41;16.36;54.96
77218;DHT22;66214;51.302;17.068;2023-03-23T08:40:09;16.37;55.17
77218;DHT22;66214;51.302;17.068;2023-03-23T08:42:41;16.33;54.80
77218;DHT22;66214;51.302;17.068;2023-03-23T08:45:10;16.34;55.15
77218;DHT22;66214;51.302;17.068;2023-03-23T08:47:40;16.42;54.88
77218;DHT22;66214;51.302;17.068;2023-03-23T08:50:09;16.51;54.32
77218;DHT22;66214;51.302;17.068;2023-03-23T08:52:40;16.59;54.06
77218;DHT22;66214;51.302;17.068;2023-03-23T08:55:07;16.82;54.16
77218;DHT22;66214;51.302;17.068;2023-03-23T08:57:35;17.22;54.10
77218;DHT22;66214;51.302;17.068;2023-03-23T09:00:03;17.47;52.99
77218;DHT22;66214;51.302;17.068;2023-03-23T09:02:44;17.57;51.98
77218;DHT22;66214;51.302;17.068;2023-03-23T09:05:16;17.59;51.63
77218;DHT22;66214;51.302;17.068;2023-03-23T09:07:48;17.59;51.55
77218;DHT22;66214;51.302;17.068;2023-03-23T09:10:17;17.62;50.84
77218;DHT22;66214;51.302;17.068;2023-03-23T09:12:45;17.76;50.93
77218;DHT22;66214;51.302;17.068;2023-03-23T09:15:14;18.06;50.18
77218;DHT22;66214;51.302;17.068;2023-03-23T09:17:43;18.20;49.95
77218;DHT22;66214;51.302;17.068;2023-03-23T09:20:13;18.22;49.89
77218;DHT22;66214;51.302;17.068;2023-03-23T09:22:43;18.20;49.39
77218;DHT22;66214;51.302;17.068;2023-03-23T09:25:13;18.18;49.00
77218;DHT22;66214;51.302;17.068;2023-03-23T09:27:45;18.29;49.62
77218;DHT22;66214;51.302;17.068;2023-03-23T09:30:15;18.37;49.92
77218;DHT22;66214;51.302;17.068;2023-03-23T09:32:41;18.33;50.05
77218;DHT22;66214;51.302;17.068;2023-03-23T09:35:10;18.37;50.44
77218;DHT22;66214;51.302;17.068;2023-03-23T09:37:40;18.46;50.48
77218;DHT22;66214;51.302;17.068;2023-03-23T09:40:09;18.58;50.17
77218;DHT22;66214;51.302;17.068;2023-03-23T09:45:35;18.78;49.96
77218;DHT22;66214;51.302;17.068;2023-03-23T09:48:49;18.79;48.68
77218;DHT22;66214;51.302;17.068;2023-03-23T09:56:53;18.81;49.16
77218;DHT22;66214;51.302;17.068;2023-03-23T09:59:34;18.77;48.53
77218;DHT22;66214;51.302;17.068;2023-03-23T10:07:33;18.98;47.66
77218;DHT22;66214;51.302;17.068;2023-03-23T10:10:00;19.04;46.71
77218;DHT22;66214;51.302;17.068;2023-03-23T10:15:42;19.22;46.03
77218;DHT22;66214;51.302;17.068;2023-03-23T10:21:10;19.50;46.30
77218;DHT22;66214;51.302;17.068;2023-03-23T10:27:13;19.35;45.62
77218;DHT22;66214;51.302;17.068;2023-03-23T10:29:57;19.13;45.65
77218;DHT22;66214;51.302;17.068;2023-03-23T10:35:47;18.74;46.35
77218;DHT22;66214;51.302;17.068;2023-03-23T10:38:23;18.61;46.57
77218;DHT22;66214;51.302;17.068;2023-03-23T10:41:00;18.53;46.89
77218;DHT22;66214;51.302;17.068;2023-03-23T10:43:38;18.43;46.82
77218;DHT22;66214;51.302;17.068;2023-03-23T10:46:11;18.35;46.83
77218;DHT22;66214;51.302;17.068;2023-03-23T10:49:05;18.34;47.20
77218;DHT22;66214;51.302;17.068;2023-03-23T10:51:43;18.49;46.70
77218;DHT22;66214;51.302;17.068;2023-03-23T10:54:25;18.65;46.30
77218;DHT22;66214;51.302;17.068;2023-03-23T10:56:54;18.70;45.79
77218;DHT22;66214;51.302;17.068;2023-03-23T10:59:30;18.90;45.95
77218;DHT22;66214;51.302;17.068;2023-03-23T11:02:00;19.25;45.67
77218;DHT22;66214;51.302;17.068;2023-03-23T11:04:41;19.49;45.58
77218;DHT22;66214;51.302;17.068;2023-03-23T11:07:17;19.70;44.61
77218;DHT22;66214;51.302;17.068;2023-03-23T11:09:53;19.87;44.60
77218;DHT22;66214;51.302;17.068;2023-03-23T11:12:24;19.99;44.33
77218;DHT22;66214;51.302;17.068;2023-03-23T11:14:51;20.00;43.95
77218;DHT22;66214;51.302;17.068;2023-03-23T11:17:22;20.19;44.06
77218;DHT22;66214;51.302;17.068;2023-03-23T11:19:52;21.03;43.63
77218;DHT22;66214;51.302;17.068;2023-03-23T11:22:26;21.16;42.58
77218;DHT22;66214;51.302;17.068;2023-03-23T11:25:00;20.94;42.21
77218;DHT22;66214;51.302;17.068;2023-03-23T11:27:30;20.64;42.53
77218;DHT22;66214;51.302;17.068;2023-03-23T11:30:09;20.42;43.07
77218;DHT22;66214;51.302;17.068;2023-03-23T11:32:42;20.22;43.27
77218;DHT22;66214;51.302;17.068;2023-03-23T11:35:17;20.04;43.59
77218;DHT22;66214;51.302;17.068;2023-03-23T11:37:55;19.96;44.22
77218;DHT22;66214;51.302;17.068;2023-03-23T11:40:25;19.97;44.14
77218;DHT22;66214;51.302;17.068;2023-03-23T11:43:09;19.90;43.84
77218;DHT22;66214;51.302;17.068;2023-03-23T11:45:41;19.81;44.10
77218;DHT22;66214;51.302;17.068;2023-03-23T11:54:14;19.42;44.26
77218;DHT22;66214;51.302;17.068;2023-03-23T11:56:48;19.32;44.54
77218;DHT22;66214;51.302;17.068;2023-03-23T11:59:15;19.27;44.67
77218;DHT22;66214;51.302;17.068;2023-03-23T12:14:00;19.01;45.65
77218;DHT22;66214;51.302;17.068;2023-03-23T12:16:48;19.04;45.52
77218;DHT22;66214;51.302;17.068;2023-03-23T12:19:31;19.01;45.51
77218;DHT22;66214;51.302;17.068;2023-03-23T12:25:08;18.80;45.86
77218;DHT22;66214;51.302;17.068;2023-03-23T12:33:50;18.87;46.64
77218;DHT22;66214;51.302;17.068;2023-03-23T12:36:34;19.07;46.27
77218;DHT22;66214;51.302;17.068;2023-03-23T12:48:33;19.46;45.88
77218;DHT22;66214;51.302;17.068;2023-03-23T12:51:15;19.47;45.74
77218;DHT22;66214;51.302;17.068;2023-03-23T12:54:11;19.40;45.73
77218;DHT22;66214;51.302;17.068;2023-03-23T13:02:24;19.14;46.04
77218;DHT22;66214;51.302;17.068;2023-03-23T13:07:33;19.21;46.21
77218;DHT22;66214;51.302;17.068;2023-03-23T13:12:53;19.23;46.43
77218;DHT22;66214;51.302;17.068;2023-03-23T13:18:27;19.25;46.70
77218;DHT22;66214;51.302;17.068;2023-03-23T13:21:08;19.23;46.92
77218;DHT22;66214;51.302;17.068;2023-03-23T13:23:54;19.19;47.01
77218;DHT22;66214;51.302;17.068;2023-03-23T13:26:29;19.12;47.35
77218;DHT22;66214;51.302;17.068;2023-03-23T13:29:00;19.10;47.55
77218;DHT22;66214;51.302;17.068;2023-03-23T13:31:35;19.05;47.63
77218;DHT22;66214;51.302;17.068;2023-03-23T13:36:53;18.88;47.86
77218;DHT22;66214;51.302;17.068;2023-03-23T13:39:21;18.77;48.09
77218;DHT22;66214;51.302;17.068;2023-03-23T13:49:58;18.33;48.85
77218;DHT22;66214;51.302;17.068;2023-03-23T13:52:37;18.25;49.13
77218;DHT22;66214;51.302;17.068;2023-03-23T14:03:00;17.88;49.94
77218;DHT22;66214;51.302;17.068;2023-03-23T14:05:39;17.78;50.15
77218;DHT22;66214;51.302;17.068;2023-03-23T14:10:38;17.65;50.54
77218;DHT22;66214;51.302;17.068;2023-03-23T14:13:20;17.60;50.80
77218;DHT22;66214;51.302;17.068;2023-03-23T14:16:02;17.54;51.07
77218;DHT22;66214;51.302;17.068;2023-03-23T14:18:38;17.49;51.28
77218;DHT22;66214;51.302;17.068;2023-03-23T14:21:13;17.45;51.44
77218;DHT22;66214;51.302;17.068;2023-03-23T14:23:43;17.38;51.73
77218;DHT22;66214;51.302;17.068;2023-03-23T14:26:11;17.35;51.86
77218;DHT22;66214;51.302;17.068;2023-03-23T14:28:43;17.37;51.95
77218;DHT22;66214;51.302;17.068;2023-03-23T14:31:19;17.48;52.09
77218;DHT22;66214;51.302;17.068;2023-03-23T14:33:51;17.66;52.04
77218;DHT22;66214;51.302;17.068;2023-03-23T14:36:26;17.84;51.93
77218;DHT22;66214;51.302;17.068;2023-03-23T14:38:56;18.04;51.70
77218;DHT22;66214;51.302;17.068;2023-03-23T14:41:40;18.17;51.46
77218;DHT22;66214;51.302;17.068;2023-03-23T14:44:07;18.22;51.13
77218;DHT22;66214;51.302;17.068;2023-03-23T14:46:39;18.17;50.92
77218;DHT22;66214;51.302;17.068;2023-03-23T14:49:14;18.08;50.89
77218;DHT22;66214;51.302;17.068;2023-03-23T14:52:26;17.98;51.04
77218;DHT22;66214;51.302;17.068;2023-03-23T14:54:41;17.88;51.12
77218;DHT22;66214;51.302;17.068;2023-03-23T14:57:16;17.83;51.07
77218;DHT22;66214;51.302;17.068;2023-03-23T14:59:52;17.75;51.23
77218;DHT22;66214;51.302;17.068;2023-03-23T15:02:30;17.70;51.39
77218;DHT22;66214;51.302;17.068;2023-03-23T15:05:08;17.66;51.58
77218;DHT22;66214;51.302;17.068;2023-03-23T15:07:43;17.70;51.73
77218;DHT22;66214;51.302;17.068;2023-03-23T15:10:16;17.76;51.83
77218;DHT22;66214;51.302;17.068;2023-03-23T15:12:46;17.85;51.73
77218;DHT22;66214;51.302;17.068;2023-03-23T15:17:59;18.43;51.20
77218;DHT22;66214;51.302;17.068;2023-03-23T15:22:56;18.94;50.62
77218;DHT22;66214;51.302;17.068;2023-03-23T15:25:31;19.01;50.53
77218;DHT22;66214;51.302;17.068;2023-03-23T15:30:58;18.95;50.13
77218;DHT22;66214;51.302;17.068;2023-03-23T15:33:36;18.73;50.24
77218;DHT22;66214;51.302;17.068;2023-03-23T15:36:06;18.55;50.70
77218;DHT22;66214;51.302;17.068;2023-03-23T15:38:42;18.39;51.05
77218;DHT22;66214;51.302;17.068;2023-03-23T15:41:23;18.23;51.37
77218;DHT22;66214;51.302;17.068;2023-03-23T15:43:55;18.06;51.70
77218;DHT22;66214;51.302;17.068;2023-03-23T15:46:25;17.95;51.91
77218;DHT22;66214;51.302;17.068;2023-03-23T15:51:27;17.83;52.11
77218;DHT22;66214;51.302;17.068;2023-03-23T15:53:56;17.76;52.27
77218;DHT22;66214;51.302;17.068;2023-03-23T15:56:23;17.65;52.43
77218;DHT22;66214;51.302;17.068;2023-03-23T15:58:51;17.52;52.81
77218;DHT22;66214;51.302;17.068;2023-03-23T16:01:23;17.40;53.22
77218;DHT22;66214;51.302;17.068;2023-03-23T16:03:57;17.28;53.47
77218;DHT22;66214;51.302;17.068;2023-03-23T16:06:27;17.17;53.84
77218;DHT22;66214;51.302;17.068;2023-03-23T16:08:57;17.08;54.05
77218;DHT22;66214;51.302;17.068;2023-03-23T16:11:26;16.96;54.60
77218;DHT22;66214;51.302;17.068;2023-03-23T16:13:54;16.86;54.83
77218;DHT22;66214;51.302;17.068;2023-03-23T16:16:43;16.79;54.87
77218;DHT22;66214;51.302;17.068;2023-03-23T16:19:12;16.71;55.08
77218;DHT22;66214;51.302;17.068;2023-03-23T16:21:40;16.64;55.44
77218;DHT22;66214;51.302;17.068;2023-03-23T16:24:07;16.54;55.69
77218;DHT22;66214;51.302;17.068;2023-03-23T16:26:35;16.45;56.40
77218;DHT22;66214;51.302;17.068;2023-03-23T16:29:04;16.39;56.32
77218;DHT22;66214;51.302;17.068;2023-03-23T16:31:37;16.34;56.47
77218;DHT22;66214;51.302;17.068;2023-03-23T16:34:04;16.30;56.51
77218;DHT22;66214;51.302;17.068;2023-03-23T16:36:31;16.26;56.61
77218;DHT22;66214;51.302;17.068;2023-03-23T16:38:57;16.24;56.70
77218;DHT22;66214;51.302;17.068;2023-03-23T16:41:24;16.19;57.36
77218;DHT22;66214;51.302;17.068;2023-03-23T16:43:51;16.14;57.41
77218;DHT22;66214;51.302;17.068;2023-03-23T16:46:17;16.08;57.59
77218;DHT22;66214;51.302;17.068;2023-03-23T16:48:44;16.04;57.62
77218;DHT22;66214;51.302;17.068;2023-03-23T16:51:10;16.00;57.82
77218;DHT22;66214;51.302;17.068;2023-03-23T16:53:36;15.97;57.96
77218;DHT22;66214;51.302;17.068;2023-03-23T16:56:03;15.93;58.06
77218;DHT22;66214;51.302;17.068;2023-03-23T16:58:30;15.90;58.40
77218;DHT22;66214;51.302;17.068;2023-03-23T17:00:57;15.88;58.23
77218;DHT22;66214;51.302;17.068;2023-03-23T17:03:23;15.86;58.17
77218;DHT22;66214;51.302;17.068;2023-03-23T17:05:50;15.84;58.31
77218;DHT22;66214;51.302;17.068;2023-03-23T17:08:17;15.83;58.28
77218;DHT22;66214;51.302;17.068;2023-03-23T17:10:44;15.80;58.63
77218;DHT22;66214;51.302;17.068;2023-03-23T17:13:12;15.75;58.89
77218;DHT22;66214;51.302;17.068;2023-03-23T17:15:39;15.71;59.08
77218;DHT22;66214;51.302;17.068;2023-03-23T17:18:07;15.66;59.43
77218;DHT22;66214;51.302;17.068;2023-03-23T17:20:34;15.63;59.68
77218;DHT22;66214;51.302;17.068;2023-03-23T17:23:01;15.58;59.72
77218;DHT22;66214;51.302;17.068;2023-03-23T17:25:28;15.54;59.71
77218;DHT22;66214;51.302;17.068;2023-03-23T17:27:56;15.52;60.01
77218;DHT22;66214;51.302;17.068;2023-03-23T17:30:23;15.48;59.92
77218;DHT22;66214;51.302;17.068;2023-03-23T17:32:50;15.45;60.13
77218;DHT22;66214;51.302;17.068;2023-03-23T17:35:17;15.42;60.22
77218;DHT22;66214;51.302;17.068;2023-03-23T17:37:43;15.39;60.25
77218;DHT22;66214;51.302;17.068;2023-03-23T17:40:10;15.36;60.24
77218;DHT22;66214;51.302;17.068;2023-03-23T17:42:38;15.33;60.24
77218;DHT22;66214;51.302;17.068;2023-03-23T17:45:06;15.31;60.43
77218;DHT22;66214;51.302;17.068;2023-03-23T17:47:34;15.28;60.58
77218;DHT22;66214;51.302;17.068;2023-03-23T17:50:01;15.26;61.05
77218;DHT22;66214;51.302;17.068;2023-03-23T17:52:29;15.23;61.34
77218;DHT22;66214;51.302;17.068;2023-03-23T17:54:55;15.20;61.42
77218;DHT22;66214;51.302;17.068;2023-03-23T17:57:22;15.17;61.87
77218;DHT22;66214;51.302;17.068;2023-03-23T17:59:49;15.16;62.04
77218;DHT22;66214;51.302;17.068;2023-03-23T18:02:15;15.17;62.33